Terminal Aerodrome Forecast
Issued by NWS Denver/Boulder, CO

Home | Current Version | Previous Version | Text Only | Print | Product List | Glossary On
Versions: 1 2 3 4 5 6 7 8 9 10 11 12 13 14 15 16 17 18 19 20 21 22 23 24 25 26 27 28 29 30 31 32 33 34 35 36 37 38 39 40 41 42 43 44 45 46 47 48 49 50
000
FTUS45 KBOU 281501 AAB
TAFDEN
TAF AMD
KDEN 281501Z 2815/2918 26018G36KT P6SM FEW080 SCT130 SCT220
     FM281800 30020G30KT P6SM SCT120 BKN180
     FM282300 35012G20KT P6SM SCT120 BKN170
     FM290100 01009KT P6SM FEW070 BKN120 BKN180
     FM290300 04005KT P6SM BKN070 BKN110
     FM290700 07006KT P6SM SCT030 BKN050 OVC080
     FM291000 VRB05KT P6SM SCT015 OVC030=

USA.gov is the U.S. government's official web portal to all federal, state and local government web resources and services.